Time;durP1;ratioP1;P1;durP2;ratioP2;P2;SDS_P1;SDS_P2;PMS_P1;PMS_P2;Temp;Humidity;BMP_temperature;BMP_pressure;BME280_temperature;BME280_humidity;BME280_pressure;Samples;Min_cycle;Max_cycle;Signal;HPM_P1;HPM_P2
2024/03/04 00:00:53;;;;;;;57.03;19.65;;;;;;;-2.46;55.05;101215.97;4960500;28;20041;-81
2024/03/04 00:03:40;;;;;;;55.47;18.13;;;;;;;-2.25;54.92;101230.06;4962172;28;20046;-79
2024/03/04 00:06:10;;;;;;;58.20;19.25;;;;;;;-2.29;55.31;101241.69;4974614;28;20038;-80
2024/03/04 00:08:38;;;;;;;65.95;20.08;;;;;;;-2.34;55.54;101227.78;4953036;28;20069;-79
2024/03/04 00:11:05;;;;;;;75.55;22.63;;;;;;;-2.00;55.66;101281.91;4970263;28;20045;-81
2024/03/04 00:13:35;;;;;;;68.15;21.33;;;;;;;-2.29;55.56;101224.75;4960977;28;20095;-80
2024/03/04 00:16:11;;;;;;;100.57;28.88;;;;;;;-2.90;55.54;101124.69;4977295;28;20129;-78
2024/03/04 00:18:40;;;;;;;79.32;22.45;;;;;;;-2.83;55.68;101141.28;4978657;28;20053;-80
2024/03/04 00:21:09;;;;;;;62.75;19.52;;;;;;;-3.11;55.06;101101.22;4959781;28;20049;-79
2024/03/04 00:23:36;;;;;;;58.40;20.00;;;;;;;-2.83;55.34;101141.28;4968313;28;20123;-79
2024/03/04 00:26:06;;;;;;;61.60;19.30;;;;;;;-3.11;55.33;101111.41;4962966;28;20120;-78
2024/03/04 00:28:35;;;;;;;49.05;17.30;;;;;;;-2.49;55.76;101195.38;4978739;28;20042;-78
2024/03/04 00:31:03;;;;;;;58.95;18.98;;;;;;;-1.90;55.39;101285.06;4980390;28;20081;-79
2024/03/04 00:33:31;;;;;;;62.97;20.67;;;;;;;-2.66;55.62;101152.59;4976792;28;20050;-81
2024/03/04 00:35:58;;;;;;;59.70;20.15;;;;;;;-2.51;55.67;101193.50;4978845;28;20045;-79
2024/03/04 00:39:16;;;;;;;;;;;;;;;;;;;;;
2024/03/04 00:42:57;;;;;;;;;;;;;;;;;;;;;
2024/03/04 00:46:26;;;;;;;38.10;13.73;;;;;;;-2.49;55.55;101174.97;4982089;28;20049;-84
2024/03/04 00:49:41;;;;;;;;;;;;;;;;;;;;;
2024/03/04 00:52:37;;;;;;;;;;;;;;;;;;;;;
2024/03/04 00:55:55;;;;;;;;;;;;;;;;;;;;;
2024/03/04 00:59:23;;;;;;;;;;;;;;;;;;;;;
2024/03/04 01:02:44;;;;;;;;;;;;;;;;;;;;;
2024/03/04 01:05:27;;;;;;;;;;;;;;;-2.17;55.75;101264.59;4979674;28;20038;-80
2024/03/04 01:08:53;;;;;;;;;;;;;;;;;;;;;
2024/03/04 01:12:16;;;;;;;34.38;10.90;;;;;;;-2.83;55.89;101137.06;4977517;28;20041;-82
2024/03/04 01:15:30;;;;;;;;;;;;;;;;;;;;;
2024/03/04 01:18:04;;;;;;;24.80;11.13;;;;;;;-1.99;55.27;101264.91;4979199;28;20048;-83
2024/03/04 01:21:02;;;;;;;29.65;11.95;;;;;;;-3.12;54.83;101071.44;4980118;28;20046;-82
2024/03/04 01:23:50;;;;;;;;;;;;;;;;;;;;;
2024/03/04 01:26:46;;;;;;;25.48;11.63;;;;;;;-2.48;55.23;101186.94;4973521;28;20093;-82
2024/03/04 01:29:46;;;;;;;;;;;;;;;;;;;;;
2024/03/04 01:36:10;;;;;;;27.77;10.15;;;;;;;-2.56;55.19;101188.13;4957426;28;20158;-82
2024/03/04 01:39:20;;;;;;;;;;;;;;;;;;;;;
2024/03/04 01:42:18;;;;;;;;;;;;;;;;;;;;;
2024/03/04 01:45:34;;;;;;;32.97;12.43;;;;;;;-3.21;55.74;101076.81;4975090;28;20073;-82
2024/03/04 01:48:32;;;;;;;;;;;;;;;;;;;;;
2024/03/04 01:51:47;;;;;;;33.97;13.82;;;;;;;-2.04;56.15;101250.97;4965169;28;20538;-81
2024/03/04 01:54:41;;;;;;;29.95;13.70;;;;;;;-2.34;55.22;101204.84;4960605;28;20062;-82
2024/03/04 01:57:39;;;;;;;35.00;13.77;;;;;;;-2.81;55.81;101160.09;4959800;28;20041;-83
2024/03/04 02:01:16;;;;;;;43.10;15.25;;;;;;;-2.94;55.26;101145.66;4973079;28;20061;-82
2024/03/04 02:04:22;;;;;;;45.78;16.80;;;;;;;-2.65;55.51;101187.50;4981587;28;20050;-81
2024/03/04 02:07:30;;;;;;;38.63;15.23;;;;;;;-3.07;54.82;101177.94;4979102;28;20130;-81
2024/03/04 02:15:03;;;;;;;;;;;;;;;;;;;;;
2024/03/04 02:19:01;;;;;;;52.20;16.33;;;;;;;-2.78;56.38;101262.22;4983087;28;20558;-85
2024/03/04 02:22:18;;;;;;;;;;;;;;;;;;;;;
2024/03/04 02:26:08;;;;;;;;;;;;;;;;;;;;;
2024/03/04 02:29:07;;;;;;;;;;;;;;;;;;;;;
2024/03/04 02:32:20;;;;;;;55.92;17.77;;;;;;;-3.79;56.87;101083.13;4965009;28;20058;-83
2024/03/04 02:35:20;;;;;;;;;;;;;;;;;;;;;
2024/03/04 02:38:13;;;;;;;48.50;17.95;;;;;;;-2.68;57.14;101251.00;4981916;28;20156;-82
2024/03/04 02:41:15;;;;;;;55.63;20.30;;;;;;;-3.31;56.62;101110.06;4987196;28;20607;-84
2024/03/04 02:43:47;;;;;;;59.83;20.30;;;;;;;-2.54;56.69;101237.53;4978141;28;20042;-84
2024/03/04 02:46:14;;;;;;;64.70;22.27;;;;;;;-3.85;56.13;101000.38;4979263;28;20044;-84
2024/03/04 02:48:52;;;;;;;66.25;21.52;;;;;;;-2.72;56.51;101209.16;4962117;28;20146;-84
2024/03/04 02:51:28;;;;;;;54.92;20.08;;;;;;;-3.80;56.30;101027.91;4969892;28;20046;-83
2024/03/04 02:54:11;;;;;;;44.17;17.20;;;;;;;-3.29;55.59;101131.41;4977818;28;20121;-84
2024/03/04 02:56:40;;;;;;;29.42;12.82;;;;;;;-4.14;55.80;101024.69;4947134;28;20053;-86
2024/03/04 02:59:11;;;;;;;43.45;16.27;;;;;;;-3.45;55.65;101149.84;4968416;28;20042;-83
2024/03/04 03:01:41;;;;;;;37.72;15.57;;;;;;;-4.40;56.52;101013.56;4982397;28;20101;-84
2024/03/04 03:04:08;;;;;;;45.75;17.23;;;;;;;-3.57;56.51;101145.69;4969003;28;20057;-78
2024/03/04 03:06:41;;;;;;;51.35;18.20;;;;;;;-4.10;57.12;101039.41;4963167;28;20076;-82
2024/03/04 03:09:10;;;;;;;46.38;17.95;;;;;;;-4.48;56.08;101009.59;4976833;28;20038;-81
2024/03/04 03:11:40;;;;;;;59.40;23.70;;;;;;;-4.40;56.96;101044.06;4956149;28;20046;-80
2024/03/04 03:14:09;;;;;;;64.22;25.75;;;;;;;-4.49;56.67;101049.38;4974305;28;20436;-79
2024/03/04 03:16:35;;;;;;;69.25;27.60;;;;;;;-4.57;56.65;101018.34;4959152;28;20038;-78
2024/03/04 03:19:02;;;;;;;143.50;51.50;;;;;;;-3.80;57.27;101144.94;4979288;28;20045;-78
2024/03/04 03:21:29;;;;;;;180.02;67.60;;;;;;;-3.58;57.12;101191.38;4966138;28;20042;-83
2024/03/04 03:24:07;;;;;;;168.48;57.88;;;;;;;-4.41;57.73;101055.00;4978795;28;20062;-82
2024/03/04 03:26:44;;;;;;;135.80;47.70;;;;;;;-4.56;57.72;101020.13;4981383;28;20049;-77
2024/03/04 03:29:14;;;;;;;122.78;43.10;;;;;;;-4.14;57.82;101091.69;4980545;28;20046;-84
2024/03/04 03:31:42;;;;;;;220.65;85.75;;;;;;;-3.99;57.53;101126.63;4967497;28;20038;-85
2024/03/04 03:34:13;;;;;;;158.57;61.63;;;;;;;-3.56;58.34;101192.34;4970715;28;20440;-85
2024/03/04 03:36:43;;;;;;;167.23;68.40;;;;;;;-4.80;58.08;101003.97;4978197;28;20057;-86
2024/03/04 03:39:10;;;;;;;156.43;62.45;;;;;;;-4.22;57.85;101102.06;4966773;28;20034;-84
2024/03/04 03:41:51;;;;;;;113.72;45.35;;;;;;;-4.05;57.76;101110.91;4975045;28;20034;-85
2024/03/04 03:44:19;;;;;;;72.88;28.92;;;;;;;-4.05;57.61;101121.97;4969615;28;20050;-79
2024/03/04 03:46:50;;;;;;;48.80;21.42;;;;;;;-3.69;57.71;101209.31;4984340;28;20086;-82
2024/03/04 03:49:22;;;;;;;54.40;20.45;;;;;;;-4.42;57.96;101089.72;4965769;28;20046;-81
2024/03/04 03:51:51;;;;;;;39.78;17.65;;;;;;;-3.86;57.93;101176.72;4964006;28;20045;-80
2024/03/04 03:54:23;;;;;;;38.53;15.35;;;;;;;-4.74;58.50;101041.63;4965369;28;20065;-81
2024/03/04 03:56:54;;;;;;;;;;;;;;;-3.82;58.18;101192.28;5004694;28;20052;-82
2024/03/04 03:59:26;;;;;;;35.35;15.25;;;;;;;-5.08;58.09;100985.84;4980144;28;19922;-88
2024/03/04 04:01:52;;;;;;;;;;;;;;;-3.86;58.86;101194.50;4979303;28;20072;-80
2024/03/04 04:04:19;;;;;;;37.22;15.77;;;;;;;-3.73;58.74;101202.22;4968714;28;19925;-86
2024/03/04 04:06:48;;;;;;;38.85;16.75;;;;;;;-3.92;59.05;101136.44;4986599;28;20065;-86
2024/03/04 04:09:17;;;;;;;36.92;15.88;;;;;;;-4.59;58.61;101019.88;4975287;28;20042;-83
2024/03/04 04:11:44;;;;;;;29.80;14.10;;;;;;;-3.94;57.42;101121.06;4963060;28;20045;-80
2024/03/04 04:14:13;;;;;;;41.65;15.55;;;;;;;-3.52;58.46;101201.97;4976771;28;20038;-77
2024/03/04 04:16:49;;;;;;;31.10;14.35;;;;;;;-4.42;57.98;101043.97;4992167;28;20049;-79
2024/03/04 04:19:23;;;;;;;34.95;14.05;;;;;;;-3.56;58.10;101180.53;4971572;28;20545;-87
2024/03/04 04:22:11;;;;;;;37.30;14.52;;;;;;;-4.44;57.77;101034.44;4972792;28;20074;-88
2024/03/04 04:24:38;;;;;;;37.97;15.43;;;;;;;-3.70;58.28;101173.56;4970080;28;20058;-84
2024/03/04 04:27:05;;;;;;;27.65;14.02;;;;;;;-3.88;58.06;101114.66;4980805;28;20049;-83
2024/03/04 04:29:39;;;;;;;31.85;13.25;;;;;;;-4.27;58.05;100995.84;4963250;28;20046;-79
2024/03/04 04:32:06;;;;;;;33.90;14.85;;;;;;;-3.22;58.29;101192.19;4978511;28;20061;-80
2024/03/04 04:34:33;;;;;;;32.55;14.88;;;;;;;-3.07;58.53;101182.13;4980240;28;20061;-82
2024/03/04 04:37:04;;;;;;;35.63;15.52;;;;;;;-3.88;58.29;100984.94;4961171;28;20050;-80
2024/03/04 04:39:32;;;;;;;37.80;15.00;;;;;;;-2.42;58.87;101166.97;4959318;28;20045;-74
2024/03/04 04:41:59;;;;;;;38.50;16.42;;;;;;;-3.11;58.06;101023.16;4944893;28;20038;-75
2024/03/04 04:44:25;;;;;;;33.15;14.27;;;;;;;-2.23;57.03;101112.03;4955936;28;20516;-73
2024/03/04 04:46:56;;;;;;;35.05;15.85;;;;;;;-1.16;57.61;101167.13;4961425;28;20073;-73
2024/03/04 04:49:23;;;;;;;36.00;15.30;;;;;;;-0.12;57.94;101172.25;4959624;28;21282;-73
2024/03/04 04:51:49;;;;;;;55.85;22.65;;;;;;;0.35;56.29;101086.03;4961550;28;20041;-75
2024/03/04 04:54:15;;;;;;;47.70;19.75;;;;;;;0.53;56.35;101020.44;4976032;28;20045;-74
2024/03/04 04:56:42;;;;;;;44.25;19.05;;;;;;;1.89;55.32;101138.19;4975461;28;20469;-75
2024/03/04 04:59:11;;;;;;;45.22;20.75;;;;;;;2.00;54.78;101077.97;4974909;28;20045;-75
2024/03/04 05:01:37;;;;;;;47.75;20.33;;;;;;;2.04;53.81;101025.94;4960443;28;20069;-76
2024/03/04 05:04:06;;;;;;;44.67;20.30;;;;;;;2.95;52.98;101133.56;4959726;28;20042;-76
2024/03/04 05:06:32;;;;;;;46.42;20.98;;;;;;;2.85;52.15;101093.69;4975263;28;20050;-76
2024/03/04 05:08:58;;;;;;;41.42;19.20;;;;;;;2.73;51.80;101049.47;4957901;28;20438;-76
2024/03/04 05:11:29;;;;;;;41.45;18.95;;;;;;;3.30;51.30;101147.06;4954967;28;20057;-77
2024/03/04 05:13:59;;;;;;;42.75;19.15;;;;;;;2.38;50.75;100990.59;4945363;28;20070;-75
2024/03/04 05:16:30;;;;;;;44.65;20.20;;;;;;;2.59;50.14;101034.31;4979183;28;20041;-75
2024/03/04 05:19:00;;;;;;;47.50;22.38;;;;;;;2.06;49.92;100984.91;4966047;28;20038;-76
2024/03/04 05:21:33;;;;;;;41.42;17.98;;;;;;;2.85;49.66;101137.41;4939271;28;20048;-76
2024/03/04 05:24:02;;;;;;;41.78;18.17;;;;;;;2.42;49.06;101069.59;4959911;28;20045;-75
2024/03/04 05:26:38;;;;;;;43.10;16.52;;;;;;;1.86;49.10;100977.19;4961455;28;20074;-76
2024/03/04 05:29:08;;;;;;;34.50;14.02;;;;;;;1.98;48.85;100988.84;4971905;28;20185;-75
2024/03/04 05:31:35;;;;;;;27.55;13.07;;;;;;;2.27;48.84;101000.41;4979011;28;20069;-76
2024/03/04 05:34:01;;;;;;;24.10;12.13;;;;;;;2.97;48.30;101085.63;4976745;28;20054;-78
2024/03/04 05:36:28;;;;;;;28.08;12.50;;;;;;;3.22;47.98;101086.69;4963064;28;20129;-79
2024/03/04 05:38:56;;;;;;;24.73;12.38;;;;;;;3.05;47.95;100981.41;4967973;28;20042;-82
2024/03/04 05:41:23;;;;;;;31.75;15.02;;;;;;;3.47;46.85;101006.19;4955286;28;20401;-82
2024/03/04 05:43:52;;;;;;;30.52;15.23;;;;;;;4.45;47.45;101084.56;4986528;28;20035;-81
2024/03/04 05:46:20;;;;;;;33.35;15.68;;;;;;;4.52;46.37;101019.53;4983038;28;20043;-84
2024/03/04 05:48:46;;;;;;;35.17;16.73;;;;;;;5.21;45.62;101076.88;4968079;28;20053;-84
2024/03/04 05:51:13;;;;;;;45.17;19.38;;;;;;;5.83;45.44;101103.00;4966492;28;20072;-81
2024/03/04 05:53:40;;;;;;;38.72;19.38;;;;;;;6.01;44.53;101060.47;4967473;28;20042;-80
2024/03/04 05:56:06;;;;;;;49.35;21.17;;;;;;;5.90;44.31;100979.19;4981814;28;20056;-80
2024/03/04 05:58:33;;;;;;;49.22;24.58;;;;;;;5.60;42.79;100980.91;4965748;28;20038;-80
2024/03/04 06:01:00;;;;;;;66.00;28.23;;;;;;;6.20;42.73;101103.28;4951058;28;20073;-81
2024/03/04 06:03:26;;;;;;;52.78;26.42;;;;;;;5.87;42.46;101044.53;4958906;28;20034;-82
2024/03/04 06:05:53;;;;;;;63.13;27.15;;;;;;;6.27;42.92;101083.66;4982046;28;20050;-80
2024/03/04 06:08:19;;;;;;;54.10;26.30;;;;;;;5.80;41.88;100988.38;4965931;28;20043;-79
2024/03/04 06:10:50;;;;;;;66.03;29.00;;;;;;;6.42;41.74;101058.22;4980952;28;20045;-81
2024/03/04 06:13:17;;;;;;;51.67;25.58;;;;;;;6.95;41.13;101061.38;4966049;28;20524;-80
2024/03/04 06:15:43;;;;;;;54.75;24.25;;;;;;;7.03;41.19;101028.78;4958078;28;20497;-80
2024/03/04 06:18:09;;;;;;;55.03;25.90;;;;;;;7.08;40.37;101035.81;4967925;28;20045;-82
2024/03/04 06:20:38;;;;;;;45.70;23.88;;;;;;;7.47;40.42;101021.22;4964818;28;20050;-80
2024/03/04 06:23:07;;;;;;;53.50;25.15;;;;;;;8.29;39.87;101084.34;4950409;28;20060;-79
2024/03/04 06:25:43;;;;;;;;;;;;;;;;;;;;;
2024/03/04 06:28:10;;;;;;;47.13;23.23;;;;;;;8.83;38.78;101094.97;4982849;28;20073;-79
2024/03/04 06:30:36;;;;;;;50.45;25.23;;;;;;;8.48;38.38;100993.94;4983602;28;20057;-82
2024/03/04 06:33:05;;;;;;;46.78;24.25;;;;;;;8.73;37.96;101018.66;4966668;28;20046;-79
2024/03/04 06:35:31;;;;;;;54.50;25.95;;;;;;;8.36;37.47;100934.94;4966086;28;20129;-79
2024/03/04 06:38:03;;;;;;;49.38;24.80;;;;;;;9.02;37.17;100989.75;4963497;28;20176;-81
2024/03/04 06:40:34;;;;;;;55.40;26.08;;;;;;;9.32;36.88;100975.47;4980375;28;20041;-78
2024/03/04 06:43:01;;;;;;;39.08;22.58;;;;;;;10.07;36.55;101056.25;4992524;28;20114;-78
2024/03/04 06:45:31;;;;;;;42.90;21.77;;;;;;;10.21;35.90;100996.59;4954743;28;20042;-78
2024/03/04 06:48:01;;;;;;;45.00;20.80;;;;;;;10.34;35.13;100949.91;4955549;28;20527;-78
2024/03/04 06:50:31;;;;;;;38.17;19.05;;;;;;;10.78;35.34;100948.63;4947373;28;20049;-79
2024/03/04 06:52:57;;;;;;;37.72;17.33;;;;;;;11.56;34.56;101017.81;4970323;28;20072;-77
2024/03/04 06:55:27;;;;;;;34.28;18.65;;;;;;;11.18;34.04;100924.59;4979095;28;20073;-77
2024/03/04 06:57:59;;;;;;;35.70;17.95;;;;;;;11.32;33.90;101019.38;4979976;28;20038;-77
2024/03/04 07:00:25;;;;;;;32.15;16.45;;;;;;;10.59;34.04;100917.22;4977617;28;20046;-77
2024/03/04 07:02:51;;;;;;;33.90;18.35;;;;;;;11.06;33.45;100986.19;4945788;28;20046;-78
2024/03/04 07:05:20;;;;;;;39.05;18.23;;;;;;;11.57;33.43;101066.47;4956997;28;20109;-80
2024/03/04 07:07:49;;;;;;;43.10;25.25;;;;;;;10.94;33.42;100926.16;4975275;28;20092;-79
2024/03/04 07:10:18;;;;;;;37.00;19.10;;;;;;;11.83;32.33;101008.38;4946724;28;20042;-81
2024/03/04 07:12:47;;;;;;;34.90;18.55;;;;;;;12.09;33.21;100922.47;4949090;28;20038;-80
2024/03/04 07:15:26;;;;;;;46.75;24.02;;;;;;;13.26;32.41;100925.97;4963978;28;20034;-81
2024/03/04 07:17:56;;;;;;;48.88;23.77;;;;;;;14.61;31.87;101035.38;4967605;28;20050;-78
2024/03/04 07:20:22;;;;;;;56.33;24.77;;;;;;;15.30;30.89;101072.47;4961464;28;20420;-81
2024/03/04 07:22:55;;;;;;;46.65;24.33;;;;;;;14.94;30.27;100933.84;4975662;28;20148;-79
2024/03/04 07:25:44;;;;;;;45.80;26.63;;;;;;;15.89;29.78;101014.25;4983652;28;20056;-80
2024/03/04 07:28:11;;;;;;;37.70;21.17;;;;;;;16.31;28.84;101059.22;4970049;28;20046;-78
2024/03/04 07:30:40;;;;;;;47.80;27.10;;;;;;;15.68;28.59;100947.94;4959568;28;20073;-78
2024/03/04 07:33:09;;;;;;;23.98;14.38;;;;;;;15.58;28.00;101011.91;4946246;28;20420;-80
2024/03/04 07:35:36;;;;;;;31.00;16.48;;;;;;;14.81;28.45;100927.84;4965581;28;20400;-80
2024/03/04 07:38:05;;;;;;;29.05;15.32;;;;;;;15.27;28.43;100988.59;4991846;28;20049;-79
2024/03/04 07:40:31;;;;;;;24.33;13.48;;;;;;;14.97;28.02;100967.88;4987640;28;20152;-78
2024/03/04 07:43:08;;;;;;;21.52;13.85;;;;;;;14.61;27.64;100985.59;4975827;28;20432;-78
2024/03/04 07:45:36;;;;;;;17.05;9.80;;;;;;;14.23;27.65;101026.84;4977797;28;20041;-78
2024/03/04 07:48:03;;;;;;;14.80;7.82;;;;;;;13.49;27.65;101012.25;4958637;28;20049;-78
2024/03/04 07:50:46;;;;;;;;;;;;;;;;;;;;;
2024/03/04 07:53:31;;;;;;;12.20;7.38;;;;;;;12.96;28.84;101008.75;4972660;28;20038;-78
2024/03/04 07:55:58;;;;;;;13.20;7.93;;;;;;;13.60;28.79;101043.59;4962596;28;20031;-73
2024/03/04 07:58:24;;;;;;;15.90;7.35;;;;;;;13.99;28.10;101056.59;4973621;28;20057;-74
2024/03/04 08:00:50;;;;;;;11.93;7.88;;;;;;;13.73;28.02;100986.91;4960844;28;20052;-77
2024/03/04 08:03:16;;;;;;;10.80;7.15;;;;;;;14.19;28.06;100979.75;4962635;28;20058;-77
2024/03/04 08:05:45;;;;;;;12.20;7.32;;;;;;;15.25;27.48;101048.03;4947431;28;20035;-77
2024/03/04 08:08:11;;;;;;;14.95;7.30;;;;;;;15.27;27.23;101031.44;4949928;28;20077;-77
2024/03/04 08:10:38;;;;;;;11.75;7.35;;;;;;;15.30;26.89;101014.78;4971170;28;20050;-78
2024/03/04 08:13:07;;;;;;;11.27;7.15;;;;;;;15.19;26.38;100962.44;4946653;28;20085;-77
2024/03/04 08:15:34;;;;;;;12.25;7.97;;;;;;;15.50;26.63;101038.22;4965718;28;20453;-77
2024/03/04 08:18:00;;;;;;;16.15;8.45;;;;;;;15.51;26.56;101029.47;4975197;28;20397;-78
2024/03/04 08:20:26;;;;;;;26.20;14.88;;;;;;;15.55;25.94;101012.81;4986585;28;20077;-77
2024/03/04 08:22:53;;;;;;;27.27;17.13;;;;;;;15.14;25.76;101025.41;4975044;28;20045;-78
2024/03/04 08:25:19;;;;;;;24.75;14.90;;;;;;;14.87;26.54;101023.91;4988678;28;20038;-79
2024/03/04 08:27:46;;;;;;;33.22;18.63;;;;;;;15.57;27.34;101015.41;4958756;28;20459;-78
2024/03/04 08:30:16;;;;;;;27.83;18.02;;;;;;;16.59;26.93;101008.06;4957880;28;20044;-79
2024/03/04 08:32:44;;;;;;;30.45;18.33;;;;;;;17.60;26.62;100988.84;4970328;28;20069;-85
2024/03/04 08:35:12;;;;;;;32.65;19.73;;;;;;;17.37;25.09;100990.16;4976149;28;20035;-80
2024/03/04 08:37:39;;;;;;;32.28;19.38;;;;;;;17.72;25.01;101008.81;4951568;28;20073;-78
2024/03/04 08:40:07;;;;;;;35.13;20.40;;;;;;;17.92;25.73;100992.63;4960340;28;20038;-78
2024/03/04 08:42:34;;;;;;;30.48;19.70;;;;;;;17.54;25.38;100954.78;4966877;28;20074;-78
2024/03/04 08:45:00;;;;;;;32.28;20.95;;;;;;;17.13;24.34;101023.88;4968318;28;20054;-79
2024/03/04 08:47:26;;;;;;;33.70;20.75;;;;;;;16.24;25.93;100926.25;4958345;28;20186;-79
2024/03/04 08:49:52;;;;;;;33.88;22.02;;;;;;;17.68;25.76;100954.50;4977442;28;20508;-73
2024/03/04 08:52:20;;;;;;;32.35;21.25;;;;;;;18.88;25.25;101011.59;4977688;28;20146;-76
2024/03/04 08:54:47;;;;;;;32.45;19.05;;;;;;;19.99;24.70;101020.19;4991407;28;20124;-76
2024/03/04 08:57:13;;;;;;;30.00;19.77;;;;;;;20.24;24.51;101004.50;4974169;28;20052;-76
2024/03/04 08:59:40;;;;;;;31.67;20.55;;;;;;;21.13;24.36;101013.19;4995969;28;20040;-78
2024/03/04 09:02:07;;;;;;;13.23;10.30;;;;;;;21.22;23.12;100994.31;4995871;28;20509;-76
2024/03/04 09:04:33;;;;;;;9.35;6.43;;;;;;;20.41;21.93;100998.66;4993089;28;20042;-76
2024/03/04 09:06:59;;;;;;;10.13;6.38;;;;;;;19.76;22.20;101007.63;4976220;28;20457;-78
2024/03/04 09:09:26;;;;;;;10.57;6.32;;;;;;;19.41;21.80;100999.75;4993361;28;20052;-78
2024/03/04 09:11:52;;;;;;;11.25;6.38;;;;;;;19.42;22.46;101001.50;4979214;28;20056;-71
2024/03/04 09:14:19;;;;;;;9.63;5.10;;;;;;;18.78;21.54;101000.41;4975021;28;20034;-69
2024/03/04 09:16:45;;;;;;;9.32;5.57;;;;;;;17.59;21.30;101001.16;4988436;28;20042;-77
2024/03/04 09:19:11;;;;;;;12.20;6.15;;;;;;;16.76;22.78;100944.75;4973574;28;20145;-71
2024/03/04 09:21:37;;;;;;;12.02;5.38;;;;;;;17.09;22.43;101019.59;4966078;28;20483;-69
2024/03/04 09:24:04;;;;;;;8.95;5.65;;;;;;;16.07;22.83;101018.38;4975098;28;20069;-70
2024/03/04 09:26:30;;;;;;;9.38;5.57;;;;;;;15.45;22.82;101025.13;4958675;28;20046;-71
2024/03/04 09:28:56;;;;;;;8.60;5.88;;;;;;;15.11;23.70;100993.13;4974814;28;20041;-73
2024/03/04 09:31:22;;;;;;;8.88;5.03;;;;;;;15.58;23.69;101007.50;4972419;28;20046;-72
2024/03/04 09:33:48;;;;;;;10.27;5.28;;;;;;;15.13;23.31;101018.44;4958690;28;20092;-76
2024/03/04 09:36:15;;;;;;;10.63;5.32;;;;;;;14.77;23.49;101002.13;4978168;28;20081;-76
2024/03/04 09:38:44;;;;;;;9.93;5.45;;;;;;;15.04;24.21;100987.03;4973991;28;20053;-75
2024/03/04 09:41:13;;;;;;;8.45;5.10;;;;;;;15.43;23.92;101010.31;4977594;28;20496;-77
2024/03/04 09:43:39;;;;;;;8.68;4.90;;;;;;;14.94;24.07;101001.97;4959737;28;20100;-75
2024/03/04 09:46:07;;;;;;;9.13;5.47;;;;;;;15.44;24.42;101005.06;4978523;28;20053;-76
2024/03/04 09:48:37;;;;;;;8.07;5.07;;;;;;;15.63;24.08;100974.25;4974114;28;21780;-74
2024/03/04 09:51:05;;;;;;;10.95;5.80;;;;;;;15.43;23.47;100978.81;4972264;28;20042;-74
2024/03/04 09:53:35;;;;;;;9.90;5.50;;;;;;;15.19;23.40;100983.44;4973895;28;20038;-80
2024/03/04 09:56:04;;;;;;;7.18;5.30;;;;;;;15.26;24.35;100958.00;4967137;28;20049;-75
2024/03/04 09:58:34;;;;;;;10.10;5.43;;;;;;;15.80;23.44;100968.81;4968126;28;20563;-78
2024/03/04 10:01:02;;;;;;;10.50;5.57;;;;;;;15.93;23.33;100990.56;4991977;28;20053;-81
2024/03/04 10:03:29;;;;;;;7.93;5.20;;;;;;;15.35;23.22;100989.41;4973949;28;20034;-81
2024/03/04 10:05:56;;;;;;;9.13;5.30;;;;;;;14.83;23.94;100962.75;4955779;28;20100;-77
2024/03/04 10:08:25;;;;;;;9.75;5.20;;;;;;;15.09;23.22;100966.06;4987293;28;20047;-77
2024/03/04 10:10:51;;;;;;;8.05;4.88;;;;;;;15.07;23.61;100984.41;4971256;28;20050;-77
2024/03/04 10:13:18;;;;;;;9.55;5.68;;;;;;;14.81;23.71;100963.66;4956917;28;20042;-76
2024/03/04 10:15:47;;;;;;;7.63;5.57;;;;;;;14.48;23.64;100939.41;4945240;28;20066;-73
2024/03/04 10:18:14;;;;;;;8.18;4.95;;;;;;;14.42;23.87;100959.53;4976532;28;20030;-74
2024/03/04 10:20:41;;;;;;;10.05;5.05;;;;;;;14.22;24.31;100941.31;4957979;28;20141;-80
2024/03/04 10:23:07;;;;;;;11.73;5.30;;;;;;;13.62;24.04;100952.94;4948204;28;20501;-77
2024/03/04 10:25:34;;;;;;;9.13;5.32;;;;;;;13.32;24.71;100966.91;4977259;28;20035;-77
2024/03/04 10:28:06;;;;;;;10.63;5.20;;;;;;;12.80;24.13;100964.31;4975884;28;20046;-76
2024/03/04 10:30:37;;;;;;;8.95;5.05;;;;;;;11.81;24.61;100951.00;4951051;28;20042;-74
2024/03/04 10:33:03;;;;;;;9.00;4.88;;;;;;;11.11;25.22;100952.34;4955342;28;20097;-78
2024/03/04 10:35:31;;;;;;;9.68;5.50;;;;;;;10.50;26.26;100918.00;4941208;28;20046;-77
2024/03/04 10:38:02;;;;;;;9.43;5.15;;;;;;;10.58;26.75;100961.44;4949716;28;20085;-76
2024/03/04 10:40:35;;;;;;;9.10;5.03;;;;;;;9.84;26.39;100905.13;4951652;28;20034;-75
2024/03/04 10:43:03;;;;;;;9.40;5.03;;;;;;;9.80;26.94;95132.06;4954402;28;20240;-75
2024/03/04 10:45:31;;;;;;;11.00;5.18;;;;;;;9.11;27.35;100892.94;4957317;28;20042;-72
2024/03/04 10:48:02;;;;;;;8.60;5.07;;;;;;;9.54;27.48;100968.00;4923062;28;20525;-75
2024/03/04 10:50:31;;;;;;;11.63;5.30;;;;;;;9.19;27.81;100905.19;4955744;28;20073;-75
2024/03/04 10:52:59;;;;;;;9.00;4.80;;;;;;;9.40;27.74;100914.13;4956465;28;20066;-69
2024/03/04 10:55:25;;;;;;;8.70;5.10;;;;;;;9.51;27.66;100958.44;4954230;28;20054;-73
2024/03/04 10:57:57;;;;;;;10.85;4.80;;;;;;;9.39;27.79;100958.25;4955766;28;20425;-72
2024/03/04 11:00:25;;;;;;;10.82;4.60;;;;;;;9.21;27.49;100969.25;4973239;28;20129;-71
2024/03/04 11:02:59;;;;;;;9.40;4.70;;;;;;;8.87;27.46;100972.19;4947002;28;20085;-74
2024/03/04 11:05:28;;;;;;;7.28;4.60;;;;;;;8.74;28.64;100977.16;4952749;28;20039;-73
2024/03/04 11:08:04;;;;;;;8.75;4.80;;;;;;;8.77;28.89;100942.59;4966957;28;20774;-68
2024/03/04 11:10:33;;;;;;;9.60;5.20;;;;;;;8.86;29.01;100931.50;4967568;28;20109;-73
2024/03/04 11:13:08;;;;;;;9.07;4.88;;;;;;;8.44;28.88;100853.81;4950395;28;20043;-74
2024/03/04 11:15:42;;;;;;;8.48;4.50;;;;;;;8.96;28.83;100954.16;4939439;28;20039;-74
2024/03/04 11:18:17;;;;;;;10.65;5.20;;;;;;;8.83;29.34;100913.28;4974843;28;20496;-75
2024/03/04 11:20:46;;;;;;;10.00;5.10;;;;;;;8.91;29.21;100885.72;4979239;28;20074;-73
2024/03/04 11:23:14;;;;;;;10.00;5.05;;;;;;;9.39;29.44;100919.28;4974188;28;20046;-73
2024/03/04 11:25:41;;;;;;;8.30;4.43;;;;;;;9.54;29.12;100940.31;4971704;28;20041;-76
2024/03/04 11:28:08;;;;;;;10.68;5.38;;;;;;;9.55;28.97;100922.97;4973354;28;20046;-73
2024/03/04 11:30:37;;;;;;;10.55;5.18;;;;;;;9.88;29.39;100940.72;4953705;28;20049;-74
2024/03/04 11:33:41;;;;;;;7.80;5.10;;;;;;;9.78;29.21;100939.72;4969421;28;20117;-72
2024/03/04 11:36:09;;;;;;;8.00;4.72;;;;;;;9.45;28.77;100911.56;4967304;28;20488;-74
2024/03/04 11:38:46;;;;;;;8.70;4.55;;;;;;;9.23;29.24;100920.81;4985377;28;20357;-75
2024/03/04 11:41:33;;;;;;;14.45;5.30;;;;;;;9.21;30.17;100906.94;4966434;28;20038;-75
2024/03/04 11:43:58;;;;;;;8.85;4.75;;;;;;;9.28;30.14;100914.81;4952074;28;20034;-73
2024/03/04 11:46:24;;;;;;;8.68;5.00;;;;;;;9.48;29.75;100911.63;4955270;28;20042;-72
2024/03/04 11:48:51;;;;;;;9.95;4.70;;;;;;;9.57;29.58;100909.16;4967763;28;20049;-73
2024/03/04 11:51:55;;;;;;;7.90;4.88;;;;;;;9.46;29.65;100921.13;4937505;28;20045;-73
2024/03/04 11:54:31;;;;;;;10.00;4.93;;;;;;;9.25;29.73;100894.00;4949212;28;20887;-74
2024/03/04 11:56:58;;;;;;;9.63;5.10;;;;;;;9.08;29.96;100908.47;4951143;28;20049;-73
2024/03/04 11:59:25;;;;;;;10.70;4.82;;;;;;;9.15;30.13;100911.19;4987457;28;20042;-75
2024/03/04 12:01:52;;;;;;;9.13;4.43;;;;;;;9.28;30.33;100914.81;4979030;28;20077;-74
2024/03/04 12:04:19;;;;;;;10.65;4.55;;;;;;;9.14;30.15;100882.59;4969791;28;20101;-74
2024/03/04 12:06:47;;;;;;;12.90;5.35;;;;;;;8.97;30.06;100903.13;4975360;28;20728;-73
2024/03/04 12:09:18;;;;;;;9.77;5.05;;;;;;;8.56;30.92;100858.38;4960020;28;20427;-72
2024/03/04 12:11:44;;;;;;;12.48;5.45;;;;;;;8.87;30.76;100896.91;4968078;28;20200;-72
2024/03/04 12:14:11;;;;;;;10.00;5.55;;;;;;;8.96;30.33;100875.41;4954072;28;20054;-73
2024/03/04 12:16:38;;;;;;;8.20;4.78;;;;;;;8.83;30.67;100833.66;4939389;28;20039;-74
2024/03/04 12:19:05;;;;;;;10.20;6.25;;;;;;;8.63;30.45;100794.47;4955240;28;20480;-69
2024/03/04 12:21:33;;;;;;;22.60;10.73;;;;;;;8.38;30.40;100892.59;4975447;28;20508;-70
2024/03/04 12:24:00;;;;;;;19.27;9.55;;;;;;;7.83;31.84;100867.41;4957747;28;20034;-72
2024/03/04 12:26:26;;;;;;;19.70;10.27;;;;;;;7.92;32.17;100871.03;4955874;28;20050;-71